This is the latest recevied weather packets stored in our database for station/object LKKU. If no packets are shown the sender has not sent any weather packets the latest 10 day(s).
| Time | Temp. | Humidity | Pressure | Rain* | Wind** | Luminosity | Snow |
|---|---|---|---|---|---|---|---|
| 1777906986 | 26.11° C | 22% | 1013 hPa | - | - | - | - |
| 1777903385 | 26.11° C | 24% | 1013 hPa | - | - | - | - |
| 1777896186 | 23.89° C | 31% | 1014 hPa | - | - | - | - |
| 1777888960 | 22.78° C | 33% | 1016 hPa | - | - | - | - |
| 1777885386 | 21.11° C | 35% | 1016 hPa | - | - | - | - |
| 1777881786 | 20° C | 37% | 1016 hPa | - | - | - | - |
| 1777878193 | 17.78° C | 39% | 1016 hPa | - | - | - | - |
| 1777876023 | 17.78° C | 39% | 1016 hPa | - | - | - | - |
| 1777874585 | 17.22° C | 42% | 1016 hPa | - | - | - | - |
| 1777870986 | 15° C | 47% | 1016 hPa | - | - | - | - |
| 1777867386 | 12.78° C | 54% | 1016 hPa | - | - | - | - |
| 1777802584 | 22.22° C | 30% | 1019 hPa | - | - | - | - |
| 1777798985 | 21.11° C | 28% | 1020 hPa | - | - | - | - |
| 1777795386 | 20° C | 32% | 1020 hPa | - | - | - | - |
| 1777791785 | 18.89° C | 34% | 1020 hPa | - | - | - | - |
| 1777789324 | 17.22° C | 39% | 1020 hPa | - | - | - | - |
| 1777723386 | 22.22° C | 30% | 1022 hPa | - | - | - | - |
| 1777719767 | 21.11° C | 35% | 1023 hPa | - | - | - | - |
| 1777716186 | 20° C | 34% | 1024 hPa | - | - | - | - |
| 1777712587 | 20° C | 37% | 1024 hPa | - | - | - | - |
| 1777708987 | 17.22° C | 48% | 1025 hPa | - | - | - | - |
| 1777705387 | 13.89° C | 54% | 1025 hPa | - | - | - | - |
| 1777636985 | 17.78° C | 36% | 1026 hPa | - | - | - | - |
| 1777633386 | 17.22° C | 39% | 1027 hPa | - | - | - | - |
| 1777629786 | 16.11° C | 41% | 1028 hPa | - | - | - | - |
* Rain since midnight (hover to see other rain measurements)
** Current wind speed in m/s (hover to see current wind gust speed)